createdAt,value
2018-05-31T00:02:08.711Z,94842.46
2018-05-31T00:05:11.985Z,94838.81
2018-05-31T00:08:16.032Z,94841.11
2018-05-31T00:11:19.479Z,94834.77
2018-05-31T00:14:22.815Z,94855.14
2018-05-31T00:17:26.844Z,94853.03
2018-05-31T00:20:30.115Z,94853.22
2018-05-31T00:23:34.215Z,94838.61
2018-05-31T00:26:37.496Z,94841.68
2018-05-31T00:29:40.764Z,94845.12
2018-05-31T00:32:44.828Z,94845.54
2018-05-31T00:35:48.106Z,94828.63
2018-05-31T00:38:51.826Z,94832.07
2018-05-31T00:41:55.097Z,94832.64
2018-05-31T00:44:58.364Z,94833.39
2018-05-31T00:48:01.652Z,94829.57
2018-05-31T00:51:05.023Z,94832.77
2018-05-31T00:54:08.291Z,94837.94
2018-05-31T00:57:11.586Z,94830.84
2018-05-31T01:00:14.880Z,94834.31
2018-05-31T01:03:18.248Z,94839.87
2018-05-31T01:06:22.295Z,94842.71
2018-05-31T01:09:25.568Z,94842.32
2018-05-31T01:12:28.866Z,94834.47
2018-05-31T01:15:32.148Z,94830.59
2018-05-31T01:18:36.187Z,94839.78
2018-05-31T01:21:39.459Z,94841.64
2018-05-31T01:24:43.488Z,94846.64
2018-05-31T01:27:46.763Z,94840.86
2018-05-31T01:30:50.814Z,94835.47
2018-05-31T01:33:54.074Z,94837.04
2018-05-31T01:36:58.115Z,94834.27
2018-05-31T01:40:01.397Z,94827.41
2018-05-31T01:43:05.440Z,94831.02
2018-05-31T01:46:08.783Z,94837.17
2018-05-31T01:49:13.552Z,94830.22
2018-05-31T01:52:16.807Z,94830.55
2018-05-31T01:55:20.113Z,94825.37
2018-05-31T01:58:23.371Z,94823.45
2018-05-31T02:01:26.659Z,94821.34
2018-05-31T02:04:29.941Z,94821.93
2018-05-31T02:07:33.203Z,94826.33
2018-05-31T02:10:36.466Z,94825.07
2018-05-31T02:13:39.732Z,94827.75
2018-05-31T02:16:43.027Z,94827.16
2018-05-31T02:19:46.295Z,94826.61
2018-05-31T02:22:49.562Z,94830.98
2018-05-31T02:25:52.839Z,94828.13
2018-05-31T02:28:56.103Z,94827.20
2018-05-31T02:32:00.157Z,94841.39
2018-05-31T02:35:03.421Z,94840.05
2018-05-31T02:38:07.452Z,94834.66
2018-05-31T02:41:10.723Z,94831.19
2018-05-31T02:44:14.747Z,94833.28
2018-05-31T02:47:18.023Z,94829.23
2018-05-31T02:50:21.286Z,94833.42
2018-05-31T02:53:25.036Z,94829.59
2018-05-31T02:56:28.847Z,94831.27
2018-05-31T02:59:32.180Z,94841.20
2018-05-31T03:02:36.177Z,94850.75
2018-05-31T03:05:39.543Z,94840.80
2018-05-31T03:08:42.815Z,94846.86
2018-05-31T03:11:46.092Z,94839.48
2018-05-31T03:14:49.365Z,94835.64
2018-05-31T03:17:52.664Z,94834.70
2018-05-31T03:20:55.941Z,94836.98
2018-05-31T03:24:00.318Z,94832.36
2018-05-31T03:27:03.774Z,94830.62
2018-05-31T03:30:07.906Z,94827.09
2018-05-31T03:33:11.186Z,94833.80
2018-05-31T03:36:15.220Z,94827.94
2018-05-31T03:39:18.711Z,94831.70
2018-05-31T03:42:22.016Z,94830.03
2018-05-31T03:45:25.288Z,94826.13
2018-05-31T03:48:28.594Z,94832.86
2018-05-31T03:51:32.692Z,94830.38
2018-05-31T03:54:37.450Z,94830.81
2018-05-31T03:57:40.751Z,94831.96
2018-05-31T04:00:45.290Z,94833.92
2018-05-31T04:03:48.556Z,94829.16
2018-05-31T04:06:52.834Z,94833.91
2018-05-31T04:09:56.109Z,94831.23
2018-05-31T04:12:59.501Z,94832.90
2018-05-31T04:16:03.591Z,94830.46
2018-05-31T04:19:07.419Z,94839.36
2018-05-31T04:22:11.457Z,94823.94
2018-05-31T04:25:15.804Z,94823.83
2018-05-31T04:28:19.949Z,94819.83
2018-05-31T04:31:24.446Z,94815.59
2018-05-31T04:34:28.790Z,94819.78
2018-05-31T04:37:32.186Z,94822.97
2018-05-31T04:40:35.531Z,94816.31
2018-05-31T04:43:38.859Z,94806.02
2018-05-31T04:46:42.126Z,94802.95
2018-05-31T04:49:45.451Z,94807.52
2018-05-31T04:52:48.715Z,94811.17
2018-05-31T04:55:52.031Z,94806.60
2018-05-31T04:58:55.299Z,94813.91
2018-05-31T05:01:59.332Z,94814.34
2018-05-31T05:05:02.667Z,94812.84
2018-05-31T05:08:06.523Z,94815.73
2018-05-31T05:11:10.551Z,94819.20
2018-05-31T05:14:13.850Z,94815.94
2018-05-31T05:17:17.236Z,94825.55
2018-05-31T05:20:20.638Z,94823.62
2018-05-31T05:23:23.914Z,94830.36
2018-05-31T05:26:27.186Z,94829.01
2018-05-31T05:29:30.510Z,94829.75
2018-05-31T05:32:34.801Z,94829.71
2018-05-31T05:35:39.592Z,94834.70
2018-05-31T05:38:42.883Z,94843.67
2018-05-31T05:41:47.058Z,94838.52
2018-05-31T05:44:50.334Z,94840.33
2018-05-31T05:47:53.773Z,94851.84
2018-05-31T05:50:57.978Z,94855.31
2018-05-31T05:54:03.935Z,94852.74
2018-05-31T05:57:07.278Z,94860.42
2018-05-31T06:00:11.504Z,94862.01
2018-05-31T06:03:16.001Z,94874.20
2018-05-31T06:06:20.088Z,94868.31
2018-05-31T06:09:23.370Z,94863.00
2018-05-31T06:12:26.782Z,94869.46
2018-05-31T06:15:30.185Z,94865.14
2018-05-31T06:18:33.565Z,94869.81
2018-05-31T06:21:37.049Z,94876.39
2018-05-31T06:25:11.081Z,94876.12
2018-05-31T06:28:56.396Z,94878.47
2018-05-31T06:32:08.050Z,94883.56
2018-05-31T06:35:11.716Z,94890.13
2018-05-31T06:38:14.987Z,94889.91
2018-05-31T06:41:19.791Z,94886.86
2018-05-31T06:44:23.753Z,94893.42
2018-05-31T06:47:27.902Z,94899.80
2018-05-31T06:50:31.943Z,94892.01
2018-05-31T06:53:35.713Z,94891.91
2018-05-31T06:56:39.331Z,94887.46
2018-05-31T06:59:42.627Z,94882.23
2018-05-31T07:02:47.386Z,94885.52
2018-05-31T07:05:54.094Z,94887.66
2018-05-31T07:08:57.560Z,94886.14
2018-05-31T07:12:00.828Z,94885.65
2018-05-31T07:15:04.863Z,94882.19
2018-05-31T07:18:08.136Z,94891.50
2018-05-31T07:21:12.176Z,94889.89
2018-05-31T07:24:15.704Z,94885.58
2018-05-31T07:27:19.790Z,94886.42
2018-05-31T07:30:23.806Z,94882.16
2018-05-31T07:33:27.769Z,94886.47
2018-05-31T07:36:31.494Z,94881.34
2018-05-31T07:39:34.830Z,94878.91
2018-05-31T07:42:39.111Z,94881.12
2018-05-31T07:45:42.472Z,94880.45
2018-05-31T07:48:45.808Z,94872.28
2018-05-31T07:51:49.109Z,94871.98
2018-05-31T07:54:52.446Z,94873.45
2018-05-31T07:57:55.745Z,94892.77
2018-05-31T08:00:59.013Z,94885.29
2018-05-31T08:04:02.297Z,94885.64
2018-05-31T08:07:06.327Z,94879.81
2018-05-31T08:10:09.608Z,94878.98
2018-05-31T08:13:12.898Z,94880.78
2018-05-31T08:16:16.153Z,94880.34
2018-05-31T08:23:33.557Z,94880.38
2018-05-31T08:27:09.323Z,94886.28
2018-05-31T08:30:24.332Z,94883.67
2018-05-31T08:33:55.833Z,94890.97
2018-05-31T08:37:15.156Z,94879.33
2018-05-31T08:40:45.549Z,94878.56
2018-05-31T08:43:51.163Z,94881.11
2018-05-31T08:46:55.234Z,94880.77
2018-05-31T08:50:03.006Z,94880.23
2018-05-31T08:53:10.609Z,94878.37
2018-05-31T08:56:14.364Z,94880.55
2018-05-31T08:59:17.623Z,94877.48
2018-05-31T09:02:20.933Z,94883.66
2018-05-31T09:05:25.022Z,94888.05
2018-05-31T09:08:29.725Z,94878.02
2018-05-31T09:11:33.191Z,94883.47
2018-05-31T09:14:36.452Z,94881.38
2018-05-31T09:17:40.497Z,94879.67
2018-05-31T09:20:43.771Z,94880.58
2018-05-31T09:23:47.998Z,94881.94
2018-05-31T09:26:51.293Z,94871.14
2018-05-31T09:29:54.550Z,94874.17
2018-05-31T09:32:57.811Z,94868.31
2018-05-31T09:36:01.086Z,94871.63
2018-05-31T09:39:05.117Z,94870.64
2018-05-31T09:42:08.418Z,94871.87
2018-05-31T09:45:12.192Z,94864.59
2018-05-31T09:48:16.479Z,94868.48
2018-05-31T09:51:22.324Z,94876.94
2018-05-31T09:54:26.204Z,94876.83
2018-05-31T09:57:29.546Z,94872.45
2018-05-31T10:00:39.138Z,94882.77
2018-05-31T10:03:42.428Z,94872.52
2018-05-31T10:06:46.708Z,94872.35
2018-05-31T10:09:50.007Z,94868.95
2018-05-31T10:12:53.631Z,94868.02
2018-05-31T10:15:56.907Z,94861.77
2018-05-31T10:19:00.216Z,94861.72
2018-05-31T10:22:03.482Z,94858.05
2018-05-31T10:25:06.730Z,94858.42
2018-05-31T10:28:10.772Z,94873.64
2018-05-31T10:31:14.023Z,94866.20
2018-05-31T10:34:17.294Z,94866.63
2018-05-31T10:37:20.799Z,94865.71
2018-05-31T10:40:24.050Z,94864.23
2018-05-31T10:43:27.652Z,94854.28
2018-05-31T10:46:30.916Z,94860.55
2018-05-31T10:49:34.189Z,94854.23
2018-05-31T10:52:37.455Z,94850.70
2018-05-31T10:55:40.703Z,94854.91
2018-05-31T10:58:43.967Z,94854.73
2018-05-31T11:01:47.222Z,94852.45
2018-05-31T11:04:51.253Z,94850.70
2018-05-31T11:07:54.516Z,94851.67
2018-05-31T11:10:58.087Z,94853.05
2018-05-31T11:14:01.543Z,94851.63
2018-05-31T11:17:05.594Z,94841.98
2018-05-31T11:20:08.864Z,94841.34
2018-05-31T11:23:13.023Z,94845.22
2018-05-31T11:26:16.710Z,94838.36
2018-05-31T11:29:20.000Z,94841.43
2018-05-31T11:32:24.983Z,94839.77
2018-05-31T11:35:28.298Z,94834.28
2018-05-31T11:38:36.467Z,94828.36
2018-05-31T11:41:41.090Z,94826.72
2018-05-31T11:44:44.492Z,94824.63
2018-05-31T11:47:47.848Z,94823.37
2018-05-31T11:50:51.894Z,94813.81
2018-05-31T11:53:55.167Z,94812.26
2018-05-31T11:56:59.401Z,94806.62
2018-05-31T12:00:02.664Z,94806.54
2018-05-31T12:03:08.755Z,94797.11
2018-05-31T12:06:12.917Z,94789.81
2018-05-31T12:09:16.185Z,94788.16
2018-05-31T12:12:19.628Z,94784.88
2018-05-31T12:15:22.903Z,94779.67
2018-05-31T12:18:26.171Z,94784.14
2018-05-31T12:21:29.450Z,94778.15
2018-05-31T12:24:33.587Z,94780.34
2018-05-31T12:27:36.849Z,94780.02
2018-05-31T12:30:40.302Z,94771.98
2018-05-31T12:33:43.626Z,94777.33
2018-05-31T12:36:47.922Z,94775.88
2018-05-31T12:39:51.235Z,94775.93
2018-05-31T12:42:54.538Z,94775.73
2018-05-31T12:45:59.026Z,94767.44
2018-05-31T12:49:02.592Z,94766.58
2018-05-31T12:52:06.090Z,94764.91
2018-05-31T12:55:09.354Z,94758.41
2018-05-31T12:58:12.631Z,94763.79
2018-05-31T13:01:15.949Z,94767.05
2018-05-31T13:04:19.322Z,94768.08
2018-05-31T13:07:28.019Z,94766.63
2018-05-31T13:10:31.581Z,94759.92
2018-05-31T13:13:34.882Z,94760.05
2018-05-31T13:16:38.145Z,94764.24
2018-05-31T13:19:41.418Z,94763.38
2018-05-31T13:22:45.464Z,94760.49
2018-05-31T13:25:48.773Z,94759.18
2018-05-31T13:28:52.169Z,94755.74
2018-05-31T13:31:55.827Z,94750.63
2018-05-31T13:35:00.625Z,94743.16
2018-05-31T13:38:16.604Z,94748.30
2018-05-31T13:41:20.355Z,94746.31
2018-05-31T13:44:24.467Z,94738.55
2018-05-31T13:47:28.577Z,94735.88
2018-05-31T13:50:32.162Z,94734.07
2018-05-31T13:53:35.591Z,94735.63
2018-05-31T13:56:38.888Z,94732.54
2018-05-31T13:59:43.358Z,94733.42
2018-05-31T14:02:46.732Z,94730.80
2018-05-31T14:05:50.237Z,94732.06
2018-05-31T14:08:53.494Z,94729.19
2018-05-31T14:11:56.758Z,94719.62
2018-05-31T14:15:00.144Z,94724.69
2018-05-31T14:18:04.726Z,94721.22
2018-05-31T14:21:09.522Z,94717.11
2018-05-31T14:24:14.178Z,94724.61
2018-05-31T14:27:17.545Z,94723.06
2018-05-31T14:30:21.309Z,94719.18
2018-05-31T14:33:25.733Z,94716.72
2018-05-31T14:36:29.450Z,94717.16
2018-05-31T14:39:33.525Z,94718.69
2018-05-31T14:42:36.906Z,94708.57
2018-05-31T14:45:40.868Z,94710.09
2018-05-31T14:48:44.821Z,94720.47
2018-05-31T14:51:48.847Z,94725.02
2018-05-31T14:54:52.139Z,94725.62
2018-05-31T14:57:55.546Z,94726.47
2018-05-31T15:00:58.835Z,94732.24
2018-05-31T15:04:03.912Z,94729.22
2018-05-31T15:07:12.789Z,94736.00
2018-05-31T15:10:16.226Z,94732.27
2018-05-31T15:13:25.382Z,94728.73
2018-05-31T15:16:31.069Z,94716.99
2018-05-31T15:19:35.103Z,94707.48
2018-05-31T15:22:38.538Z,94695.27
2018-05-31T15:25:41.883Z,94682.59
2018-05-31T15:28:45.210Z,94684.59
2018-05-31T15:31:49.367Z,94696.22
2018-05-31T15:34:54.138Z,94706.83
2018-05-31T15:37:57.472Z,94712.49
2018-05-31T15:41:00.730Z,94697.63
2018-05-31T15:44:04.628Z,94704.78
2018-05-31T15:47:09.229Z,94706.56
2018-05-31T15:50:12.610Z,94716.42
2018-05-31T15:53:15.998Z,94725.66
2018-05-31T15:56:20.204Z,94713.39
2018-05-31T15:59:24.286Z,94738.56
2018-05-31T16:02:27.562Z,94751.33
2018-05-31T16:05:30.841Z,94737.48
2018-05-31T16:08:34.194Z,94752.74
2018-05-31T16:11:37.506Z,94764.86
2018-05-31T16:14:41.553Z,94758.31
2018-05-31T16:17:44.830Z,94755.13
2018-05-31T16:20:49.038Z,94742.58
2018-05-31T16:23:52.464Z,94745.89
2018-05-31T16:26:56.498Z,94742.90
2018-05-31T16:30:00.524Z,94745.27
2018-05-31T16:33:03.834Z,94741.05
2018-05-31T16:36:07.131Z,94734.13
2018-05-31T16:39:11.214Z,94716.03
2018-05-31T16:42:14.763Z,94695.80
2018-05-31T16:45:18.022Z,94680.64
2018-05-31T16:48:23.242Z,94682.11
2018-05-31T16:51:26.588Z,94689.59
2018-05-31T16:54:29.874Z,94701.41
2018-05-31T16:57:33.919Z,94708.58
2018-05-31T17:00:37.185Z,94727.48
2018-05-31T17:03:41.426Z,94726.81
2018-05-31T17:06:45.751Z,94730.67
2018-05-31T17:09:49.414Z,94726.58
2018-05-31T17:13:03.865Z,94738.38
2018-05-31T17:16:08.763Z,94740.27
2018-05-31T17:19:19.273Z,94752.31
2018-05-31T17:22:40.642Z,94761.77
2018-05-31T17:25:47.548Z,94776.40
2018-05-31T17:28:50.940Z,94790.73
2018-05-31T17:32:16.485Z,94789.48
2018-05-31T17:35:41.045Z,94794.41
2018-05-31T17:39:00.674Z,94799.69
2018-05-31T17:42:31.752Z,94820.90
2018-05-31T17:45:50.930Z,94833.38
2018-05-31T17:49:10.145Z,94850.77
2018-05-31T17:52:15.498Z,94870.48
2018-05-31T17:55:23.841Z,94875.30
2018-05-31T17:58:33.009Z,94872.81
2018-05-31T18:01:38.672Z,94870.91
2018-05-31T18:04:42.128Z,94862.98
2018-05-31T18:07:45.469Z,94849.76
2018-05-31T18:10:48.999Z,94846.83
2018-05-31T18:13:52.306Z,94854.63
2018-05-31T18:16:55.658Z,94851.30
2018-05-31T18:19:58.963Z,94863.25
2018-05-31T18:23:02.240Z,94868.12
2018-05-31T18:26:05.523Z,94870.18
2018-05-31T18:29:08.796Z,94876.50
2018-05-31T18:32:12.134Z,94878.01
2018-05-31T18:35:15.914Z,94879.16
2018-05-31T18:38:19.233Z,94876.66
2018-05-31T18:41:22.493Z,94870.08
2018-05-31T18:44:43.077Z,94875.89
2018-05-31T18:47:47.806Z,94871.27
2018-05-31T18:50:52.006Z,94860.39
2018-05-31T18:53:55.467Z,94862.73
2018-05-31T18:56:59.879Z,94858.66
2018-05-31T19:00:03.181Z,94850.79
2018-05-31T19:03:06.580Z,94851.56
2018-05-31T19:06:09.872Z,94853.70
2018-05-31T19:09:18.824Z,94844.84
2018-05-31T19:12:27.825Z,94835.27
2018-05-31T19:15:31.922Z,94837.99
2018-05-31T19:18:40.732Z,94834.91
2018-05-31T19:21:44.005Z,94831.08
2018-05-31T19:24:52.877Z,94833.02
2018-05-31T19:27:57.016Z,94842.09
2018-05-31T19:31:06.174Z,94849.77
2018-05-31T19:34:09.859Z,94853.63
2018-05-31T19:37:14.889Z,94855.72
2018-05-31T19:40:18.420Z,94874.76
2018-05-31T19:43:28.227Z,94874.20
2018-05-31T19:46:32.369Z,94871.50
2018-05-31T19:49:35.716Z,94863.05
2018-05-31T19:52:44.433Z,94852.48
2018-05-31T19:55:47.775Z,94850.15
2018-05-31T19:58:57.365Z,94848.80
2018-05-31T20:02:06.797Z,94843.23
2018-05-31T20:05:10.055Z,94836.88
2018-05-31T20:08:14.131Z,94826.71
2018-05-31T20:11:17.450Z,94823.44
2018-05-31T20:14:20.817Z,94820.36
2018-05-31T20:17:25.966Z,94808.81
2018-05-31T20:20:29.420Z,94803.44
2018-05-31T20:23:33.588Z,94808.84
2018-05-31T20:26:36.945Z,94803.45
2018-05-31T20:29:40.236Z,94809.02
2018-05-31T20:32:44.367Z,94820.38
2018-05-31T20:35:47.789Z,94822.47
2018-05-31T20:38:51.149Z,94837.11
2018-05-31T20:41:55.177Z,94856.47
2018-05-31T20:44:58.472Z,94856.35
2018-05-31T20:48:01.762Z,94848.48
2018-05-31T20:51:05.631Z,94847.37
2018-05-31T20:54:08.885Z,94874.88
2018-05-31T20:57:12.148Z,94921.59
2018-05-31T21:00:15.417Z,94926.41
2018-05-31T21:03:18.692Z,94908.39
2018-05-31T21:06:23.684Z,94921.84
2018-05-31T21:09:28.081Z,94943.59
2018-05-31T21:12:31.674Z,94920.50
2018-05-31T21:15:34.953Z,94918.63
2018-05-31T21:18:38.238Z,94952.12
2018-05-31T21:21:41.705Z,94935.39
2018-05-31T21:24:45.828Z,94927.03
2018-05-31T21:27:50.907Z,94938.23
2018-05-31T21:30:54.161Z,94958.71
2018-05-31T21:33:58.186Z,94976.20
2018-05-31T21:37:07.836Z,94969.78
2018-05-31T21:40:11.205Z,94976.25
2018-05-31T21:43:14.624Z,94968.62
2018-05-31T21:46:18.684Z,94960.98
2018-05-31T21:49:22.446Z,94956.65
2018-05-31T21:52:28.001Z,94962.83
2018-05-31T21:55:32.033Z,94971.55
2018-05-31T21:58:35.635Z,94965.66
2018-05-31T22:01:39.656Z,94967.59
2018-05-31T22:04:43.706Z,94973.69
2018-05-31T22:07:46.957Z,94970.92
2018-05-31T22:10:52.216Z,94977.37
2018-05-31T22:13:55.470Z,94978.86
2018-05-31T22:16:59.401Z,94978.42
2018-05-31T22:20:03.497Z,94977.42
2018-05-31T22:23:07.556Z,94972.50
2018-05-31T22:26:10.847Z,94968.50
2018-05-31T22:29:14.123Z,94954.87
2018-05-31T22:32:17.652Z,94943.78
2018-05-31T22:35:20.908Z,94949.04
2018-05-31T22:38:24.183Z,94949.53
2018-05-31T22:41:27.474Z,94943.27
2018-05-31T22:44:30.730Z,94949.41
2018-05-31T22:47:34.036Z,94949.97
2018-05-31T22:50:38.059Z,94948.45
2018-05-31T22:53:41.316Z,94946.16
2018-05-31T22:59:54.036Z,94939.69
2018-05-31T23:02:57.326Z,94946.33
2018-05-31T23:06:00.678Z,94948.31
2018-05-31T23:09:04.118Z,94955.56
2018-05-31T23:12:07.941Z,94949.06
2018-05-31T23:15:11.292Z,94941.83
2018-05-31T23:18:15.509Z,94946.63
2018-05-31T23:21:19.658Z,94945.91
2018-05-31T23:24:22.950Z,94942.30
2018-05-31T23:27:26.228Z,94945.72
2018-05-31T23:30:29.635Z,94942.09
2018-05-31T23:33:33.459Z,94938.65
2018-05-31T23:36:36.742Z,94943.83
2018-05-31T23:39:39.995Z,94954.03
2018-05-31T23:42:43.280Z,94972.92
2018-05-31T23:45:46.535Z,94978.36
2018-05-31T23:48:49.842Z,94989.42
2018-05-31T23:51:53.205Z,94994.17
2018-05-31T23:54:57.455Z,95008.20
2018-05-31T23:58:00.726Z,95014.91
